sensor_id;sensor_type;location;lat;lon;timestamp;pressure;altitude;pressure_sealevel;temperature;humidity
56042;BME280;48756;41.374;2.066;2023-04-07T00:00:50;101322.19;;;13.11;63.49
56042;BME280;48756;41.374;2.066;2023-04-07T00:03:19;101324.81;;;13.11;62.37
56042;BME280;48756;41.374;2.066;2023-04-07T00:05:44;101334.53;;;13.01;63.34
56042;BME280;48756;41.374;2.066;2023-04-07T00:08:10;101334.50;;;13.04;63.61
56042;BME280;48756;41.374;2.066;2023-04-07T00:10:35;101337.19;;;12.97;63.42
56042;BME280;48756;41.374;2.066;2023-04-07T00:13:00;101338.88;;;13.01;63.04
56042;BME280;48756;41.374;2.066;2023-04-07T00:15:26;101343.72;;;12.47;65.45
56042;BME280;48756;41.374;2.066;2023-04-07T00:17:51;101344.41;;;12.67;65.94
56042;BME280;48756;41.374;2.066;2023-04-07T00:20:16;101332.81;;;12.97;64.58
56042;BME280;48756;41.374;2.066;2023-04-07T00:22:42;101331.81;;;13.09;64.44
56042;BME280;48756;41.374;2.066;2023-04-07T00:25:07;101324.78;;;13.17;64.31
56042;BME280;48756;41.374;2.066;2023-04-07T00:27:33;101321.28;;;13.16;64.48
56042;BME280;48756;41.374;2.066;2023-04-07T00:29:58;101327.44;;;13.09;64.61
56042;BME280;48756;41.374;2.066;2023-04-07T00:32:23;101318.84;;;13.00;64.67
56042;BME280;48756;41.374;2.066;2023-04-07T00:34:49;101326.06;;;12.73;64.56
56042;BME280;48756;41.374;2.066;2023-04-07T00:37:14;101326.09;;;12.67;64.69
56042;BME280;48756;41.374;2.066;2023-04-07T00:39:40;101321.06;;;12.49;66.59
56042;BME280;48756;41.374;2.066;2023-04-07T00:42:05;101323.59;;;12.55;65.62
56042;BME280;48756;41.374;2.066;2023-04-07T00:44:31;101314.84;;;12.59;65.82
56042;BME280;48756;41.374;2.066;2023-04-07T00:46:57;101318.25;;;12.70;65.23
56042;BME280;48756;41.374;2.066;2023-04-07T00:49:23;101320.16;;;12.53;66.87
56042;BME280;48756;41.374;2.066;2023-04-07T00:51:49;101312.25;;;12.59;65.74
56042;BME280;48756;41.374;2.066;2023-04-07T00:54:15;101308.78;;;12.57;65.94
56042;BME280;48756;41.374;2.066;2023-04-07T00:56:42;101302.78;;;12.47;67.01
56042;BME280;48756;41.374;2.066;2023-04-07T00:59:07;101307.06;;;12.54;66.36
56042;BME280;48756;41.374;2.066;2023-04-07T01:01:34;101301.88;;;12.50;67.35
56042;BME280;48756;41.374;2.066;2023-04-07T01:04:06;101296.66;;;12.44;67.95
56042;BME280;48756;41.374;2.066;2023-04-07T01:06:34;101302.19;;;12.06;69.51
56042;BME280;48756;41.374;2.066;2023-04-07T01:09:09;101287.16;;;12.35;68.62
56042;BME280;48756;41.374;2.066;2023-04-07T01:11:43;101285.31;;;12.49;68.24
56042;BME280;48756;41.374;2.066;2023-04-07T01:14:12;101285.22;;;12.58;66.38
56042;BME280;48756;41.374;2.066;2023-04-07T01:16:46;101291.41;;;12.51;66.44
56042;BME280;48756;41.374;2.066;2023-04-07T01:19:24;101286.22;;;12.47;67.70
56042;BME280;48756;41.374;2.066;2023-04-07T01:21:51;101289.72;;;12.43;67.60
56042;BME280;48756;41.374;2.066;2023-04-07T01:26:43;101285.34;;;12.43;67.38
56042;BME280;48756;41.374;2.066;2023-04-07T01:31:35;101277.47;;;12.49;67.78
56042;BME280;48756;41.374;2.066;2023-04-07T01:34:03;101277.41;;;12.55;68.34
56042;BME280;48756;41.374;2.066;2023-04-07T01:36:28;101268.81;;;12.43;67.29
56042;BME280;48756;41.374;2.066;2023-04-07T01:38:59;101263.75;;;12.20;67.67
56042;BME280;48756;41.374;2.066;2023-04-07T01:41:24;101267.34;;;12.10;69.38
56042;BME280;48756;41.374;2.066;2023-04-07T01:43:51;101269.09;;;12.09;68.88
56042;BME280;48756;41.374;2.066;2023-04-07T01:46:16;101263.06;;;12.01;69.95
56042;BME280;48756;41.374;2.066;2023-04-07T01:48:42;101252.53;;;12.09;69.80
56042;BME280;48756;41.374;2.066;2023-04-07T01:51:07;101252.44;;;12.19;68.41
56042;BME280;48756;41.374;2.066;2023-04-07T01:53:35;101247.34;;;12.07;69.93
56042;BME280;48756;41.374;2.066;2023-04-07T01:56:02;101252.28;;;12.39;70.56
56042;BME280;48756;41.374;2.066;2023-04-07T01:58:27;101244.41;;;12.45;69.96
56042;BME280;48756;41.374;2.066;2023-04-07T02:00:53;101243.72;;;12.25;69.69
56042;BME280;48756;41.374;2.066;2023-04-07T02:03:30;101248.88;;;12.31;69.71
56042;BME280;48756;41.374;2.066;2023-04-07T02:05:56;101242.91;;;12.15;71.21
56042;BME280;48756;41.374;2.066;2023-04-07T02:08:22;101242.19;;;11.93;72.97
56042;BME280;48756;41.374;2.066;2023-04-07T02:10:49;101247.41;;;11.93;73.00
56042;BME280;48756;41.374;2.066;2023-04-07T02:13:15;101242.97;;;12.08;73.11
56042;BME280;48756;41.374;2.066;2023-04-07T02:15:42;101244.75;;;12.03;72.15
56042;BME280;48756;41.374;2.066;2023-04-07T02:18:09;101237.72;;;12.11;72.68
56042;BME280;48756;41.374;2.066;2023-04-07T02:20:40;101246.50;;;12.04;71.61
56042;BME280;48756;41.374;2.066;2023-04-07T02:23:09;101233.53;;;11.90;72.56
56042;BME280;48756;41.374;2.066;2023-04-07T02:25:35;101243.09;;;11.88;72.34
56042;BME280;48756;41.374;2.066;2023-04-07T02:28:02;101235.19;;;12.00;71.89
56042;BME280;48756;41.374;2.066;2023-04-07T02:30:28;101239.31;;;12.29;70.91
56042;BME280;48756;41.374;2.066;2023-04-07T02:32:53;101235.72;;;12.42;70.41
56042;BME280;48756;41.374;2.066;2023-04-07T02:35:19;101231.25;;;12.53;70.02
56042;BME280;48756;41.374;2.066;2023-04-07T02:37:45;101225.50;;;12.14;71.32
56042;BME280;48756;41.374;2.066;2023-04-07T02:40:10;101226.38;;;12.13;72.38
56042;BME280;48756;41.374;2.066;2023-04-07T02:42:36;101232.41;;;12.21;71.07
56042;BME280;48756;41.374;2.066;2023-04-07T02:45:02;101231.59;;;12.15;71.29
56042;BME280;48756;41.374;2.066;2023-04-07T02:47:27;101231.72;;;12.01;71.55
56042;BME280;48756;41.374;2.066;2023-04-07T02:49:52;101222.91;;;12.11;70.77
56042;BME280;48756;41.374;2.066;2023-04-07T02:52:18;101222.97;;;12.05;70.92
56042;BME280;48756;41.374;2.066;2023-04-07T02:54:43;101220.25;;;12.16;70.12
56042;BME280;48756;41.374;2.066;2023-04-07T02:57:08;101224.75;;;12.02;71.50
56042;BME280;48756;41.374;2.066;2023-04-07T02:59:34;101216.03;;;12.01;69.81
56042;BME280;48756;41.374;2.066;2023-04-07T03:02:00;101215.16;;;12.02;70.80
56042;BME280;48756;41.374;2.066;2023-04-07T03:04:25;101230.84;;;11.98;71.12
56042;BME280;48756;41.374;2.066;2023-04-07T03:06:51;101227.34;;;11.99;71.03
56042;BME280;48756;41.374;2.066;2023-04-07T03:09:17;101236.97;;;11.93;70.88
56042;BME280;48756;41.374;2.066;2023-04-07T03:11:42;101233.53;;;11.87;70.74
56042;BME280;48756;41.374;2.066;2023-04-07T03:14:07;101225.72;;;11.84;70.93
56042;BME280;48756;41.374;2.066;2023-04-07T03:16:33;101223.28;;;11.56;70.96
56042;BME280;48756;41.374;2.066;2023-04-07T03:18:58;101229.25;;;11.71;71.52
56042;BME280;48756;41.374;2.066;2023-04-07T03:21:23;101227.50;;;11.82;71.24
56042;BME280;48756;41.374;2.066;2023-04-07T03:23:49;101224.94;;;11.68;71.56
56042;BME280;48756;41.374;2.066;2023-04-07T03:26:14;101217.91;;;11.73;71.40
56042;BME280;48756;41.374;2.066;2023-04-07T03:28:40;101220.56;;;11.70;69.94
56042;BME280;48756;41.374;2.066;2023-04-07T03:31:05;101217.09;;;11.68;70.80
56042;BME280;48756;41.374;2.066;2023-04-07T03:33:31;101210.97;;;11.71;71.03
56042;BME280;48756;41.374;2.066;2023-04-07T03:35:56;101205.00;;;11.56;72.00
56042;BME280;48756;41.374;2.066;2023-04-07T03:38:21;101199.75;;;11.59;71.24
56042;BME280;48756;41.374;2.066;2023-04-07T03:40:47;101203.25;;;11.51;71.46
56042;BME280;48756;41.374;2.066;2023-04-07T03:43:12;101206.72;;;11.53;71.58
56042;BME280;48756;41.374;2.066;2023-04-07T03:45:39;101205.00;;;11.52;70.51
56042;BME280;48756;41.374;2.066;2023-04-07T03:48:05;101200.75;;;11.39;70.52
56042;BME280;48756;41.374;2.066;2023-04-07T03:50:34;101199.81;;;11.47;71.86
56042;BME280;48756;41.374;2.066;2023-04-07T03:53:00;101198.94;;;11.47;72.18
56042;BME280;48756;41.374;2.066;2023-04-07T03:55:26;101198.97;;;11.42;72.76
56042;BME280;48756;41.374;2.066;2023-04-07T03:57:51;101205.84;;;11.58;72.09
56042;BME280;48756;41.374;2.066;2023-04-07T04:00:16;101198.03;;;11.55;72.06
56042;BME280;48756;41.374;2.066;2023-04-07T04:02:42;101194.47;;;11.69;72.33
56042;BME280;48756;41.374;2.066;2023-04-07T04:05:07;101191.81;;;11.72;72.25
56042;BME280;48756;41.374;2.066;2023-04-07T04:07:32;101188.34;;;11.71;73.02
56042;BME280;48756;41.374;2.066;2023-04-07T04:09:58;101189.19;;;11.76;72.08
56042;BME280;48756;41.374;2.066;2023-04-07T04:12:23;101185.66;;;11.89;71.73
56042;BME280;48756;41.374;2.066;2023-04-07T04:14:48;101185.69;;;11.86;71.60
56042;BME280;48756;41.374;2.066;2023-04-07T04:17:14;101189.22;;;11.81;71.71
56042;BME280;48756;41.374;2.066;2023-04-07T04:19:39;101186.72;;;11.58;72.45
56042;BME280;48756;41.374;2.066;2023-04-07T04:22:05;101186.63;;;11.69;72.26
56042;BME280;48756;41.374;2.066;2023-04-07T04:24:30;101188.38;;;11.66;72.18
56042;BME280;48756;41.374;2.066;2023-04-07T04:26:55;101186.59;;;11.72;70.63
56042;BME280;48756;41.374;2.066;2023-04-07T04:29:21;101193.63;;;11.66;71.17
56042;BME280;48756;41.374;2.066;2023-04-07T04:31:46;101194.53;;;11.58;69.95
56042;BME280;48756;41.374;2.066;2023-04-07T04:34:11;101195.50;;;11.43;71.54
56042;BME280;48756;41.374;2.066;2023-04-07T04:36:37;101196.31;;;11.56;70.73
56042;BME280;48756;41.374;2.066;2023-04-07T04:39:04;101191.00;;;11.68;70.22
56042;BME280;48756;41.374;2.066;2023-04-07T04:41:30;101192.78;;;11.61;70.22
56042;BME280;48756;41.374;2.066;2023-04-07T04:43:55;101192.72;;;11.68;70.04
56042;BME280;48756;41.374;2.066;2023-04-07T04:46:20;101190.16;;;11.61;69.83
56042;BME280;48756;41.374;2.066;2023-04-07T04:48:46;101193.69;;;11.54;70.81
56042;BME280;48756;41.374;2.066;2023-04-07T04:51:11;101198.03;;;11.55;70.79
56042;BME280;48756;41.374;2.066;2023-04-07T04:53:36;101199.78;;;11.53;71.87
56042;BME280;48756;41.374;2.066;2023-04-07T04:56:01;101198.06;;;11.48;70.98
56042;BME280;48756;41.374;2.066;2023-04-07T04:58:27;101196.28;;;11.57;70.13
56042;BME280;48756;41.374;2.066;2023-04-07T05:00:53;101195.44;;;11.55;70.14
56042;BME280;48756;41.374;2.066;2023-04-07T05:03:22;101196.28;;;11.57;70.20
56042;BME280;48756;41.374;2.066;2023-04-07T05:05:47;101198.97;;;11.45;71.28
56042;BME280;48756;41.374;2.066;2023-04-07T05:08:12;101192.88;;;11.45;69.55
56042;BME280;48756;41.374;2.066;2023-04-07T05:10:38;101200.72;;;11.43;69.59
56042;BME280;48756;41.374;2.066;2023-04-07T05:13:04;101192.03;;;11.41;70.35
56042;BME280;48756;41.374;2.066;2023-04-07T05:15:29;101198.13;;;11.39;70.68
56042;BME280;48756;41.374;2.066;2023-04-07T05:17:55;101192.88;;;11.46;69.16
56042;BME280;48756;41.374;2.066;2023-04-07T05:20:20;101191.09;;;11.51;69.77
56042;BME280;48756;41.374;2.066;2023-04-07T05:22:46;101192.88;;;11.43;70.71
56042;BME280;48756;41.374;2.066;2023-04-07T05:25:11;101192.84;;;11.49;70.10
56042;BME280;48756;41.374;2.066;2023-04-07T05:27:36;101191.91;;;11.62;69.87
56042;BME280;48756;41.374;2.066;2023-04-07T05:30:02;101193.69;;;11.54;70.01
56042;BME280;48756;41.374;2.066;2023-04-07T05:32:27;101190.16;;;11.61;70.46
56042;BME280;48756;41.374;2.066;2023-04-07T05:34:53;101187.53;;;11.66;68.99
56042;BME280;48756;41.374;2.066;2023-04-07T05:37:18;101184.91;;;11.68;69.59
56042;BME280;48756;41.374;2.066;2023-04-07T05:39:44;101193.69;;;11.53;69.36
56042;BME280;48756;41.374;2.066;2023-04-07T05:42:09;101194.53;;;11.59;70.17
56042;BME280;48756;41.374;2.066;2023-04-07T05:44:35;101191.03;;;11.60;69.72
56042;BME280;48756;41.374;2.066;2023-04-07T05:47:00;101189.22;;;11.72;69.27
56042;BME280;48756;41.374;2.066;2023-04-07T05:49:25;101189.22;;;11.70;69.88
56042;BME280;48756;41.374;2.066;2023-04-07T05:51:51;101186.75;;;11.49;68.74
56042;BME280;48756;41.374;2.066;2023-04-07T05:54:17;101184.22;;;11.40;69.39
56042;BME280;48756;41.374;2.066;2023-04-07T05:56:42;101186.91;;;11.20;70.13
56042;BME280;48756;41.374;2.066;2023-04-07T05:59:07;101188.66;;;11.21;71.34
56042;BME280;48756;41.374;2.066;2023-04-07T06:01:33;101180.78;;;11.25;70.75
56042;BME280;48756;41.374;2.066;2023-04-07T06:03:58;101181.88;;;10.77;72.78
56042;BME280;48756;41.374;2.066;2023-04-07T06:06:23;101188.84;;;10.69;74.56
56042;BME280;48756;41.374;2.066;2023-04-07T06:08:49;101183.63;;;10.75;73.73
56042;BME280;48756;41.374;2.066;2023-04-07T06:11:15;101183.59;;;10.77;73.19
56042;BME280;48756;41.374;2.066;2023-04-07T06:13:40;101195.75;;;10.87;73.98
56042;BME280;48756;41.374;2.066;2023-04-07T06:16:05;101195.75;;;10.87;73.41
56042;BME280;48756;41.374;2.066;2023-04-07T06:18:31;101199.22;;;10.89;73.09
56042;BME280;48756;41.374;2.066;2023-04-07T06:20:56;101196.41;;;11.36;71.88
56042;BME280;48756;41.374;2.066;2023-04-07T06:23:21;101202.53;;;11.24;72.23
56042;BME280;48756;41.374;2.066;2023-04-07T06:25:46;101199.09;;;11.19;71.17
56042;BME280;48756;41.374;2.066;2023-04-07T06:28:16;101207.88;;;11.00;73.13
56042;BME280;48756;41.374;2.066;2023-04-07T06:30:41;101199.13;;;11.16;72.38
56042;BME280;48756;41.374;2.066;2023-04-07T06:33:06;101212.94;;;11.30;71.91
56042;BME280;48756;41.374;2.066;2023-04-07T06:35:32;101205.09;;;11.37;71.45
56042;BME280;48756;41.374;2.066;2023-04-07T06:37:57;101208.53;;;11.43;71.84
56042;BME280;48756;41.374;2.066;2023-04-07T06:40:22;101207.50;;;11.69;70.69
56042;BME280;48756;41.374;2.066;2023-04-07T06:42:47;101197.75;;;12.03;69.97
56042;BME280;48756;41.374;2.066;2023-04-07T06:45:13;101187.88;;;12.34;67.64
56042;BME280;48756;41.374;2.066;2023-04-07T06:47:38;101192.03;;;12.54;66.63
56042;BME280;48756;41.374;2.066;2023-04-07T06:50:04;101190.28;;;12.56;66.65
56042;BME280;48756;41.374;2.066;2023-04-07T06:52:29;101194.63;;;12.57;66.67
56042;BME280;48756;41.374;2.066;2023-04-07T06:54:55;101192.00;;;12.57;66.38
56042;BME280;48756;41.374;2.066;2023-04-07T06:57:20;101192.94;;;12.52;65.78
56042;BME280;48756;41.374;2.066;2023-04-07T06:59:45;101190.94;;;12.75;65.19
56042;BME280;48756;41.374;2.066;2023-04-07T07:02:11;101195.91;;;12.14;68.16
56042;BME280;48756;41.374;2.066;2023-04-07T07:04:36;101199.91;;;12.51;67.75
56042;BME280;48756;41.374;2.066;2023-04-07T07:07:01;101189.13;;;12.80;66.37
56042;BME280;48756;41.374;2.066;2023-04-07T07:09:27;101194.63;;;12.57;66.91
56042;BME280;48756;41.374;2.066;2023-04-07T07:11:52;101186.50;;;12.82;66.43
56042;BME280;48756;41.374;2.066;2023-04-07T07:14:18;101189.69;;;13.07;65.52
56042;BME280;48756;41.374;2.066;2023-04-07T07:16:43;101189.44;;;13.30;65.16
56042;BME280;48756;41.374;2.066;2023-04-07T07:19:08;101186.06;;;13.22;65.81
56042;BME280;48756;41.374;2.066;2023-04-07T07:21:34;101189.16;;;13.49;64.55
56042;BME280;48756;41.374;2.066;2023-04-07T07:24:01;101187.50;;;13.44;64.07
56042;BME280;48756;41.374;2.066;2023-04-07T07:26:26;101190.00;;;13.52;63.93
56042;BME280;48756;41.374;2.066;2023-04-07T07:28:52;101184.56;;;13.67;62.96
56042;BME280;48756;41.374;2.066;2023-04-07T07:31:17;101188.72;;;13.78;62.33
56042;BME280;48756;41.374;2.066;2023-04-07T07:33:43;101187.00;;;13.76;62.32
56042;BME280;48756;41.374;2.066;2023-04-07T07:36:10;101184.56;;;13.67;62.95
56042;BME280;48756;41.374;2.066;2023-04-07T07:38:35;101183.81;;;13.57;63.46
56042;BME280;48756;41.374;2.066;2023-04-07T07:41:00;101183.47;;;13.78;63.05
56042;BME280;48756;41.374;2.066;2023-04-07T07:43:26;101179.78;;;13.92;63.30
56042;BME280;48756;41.374;2.066;2023-04-07T07:45:51;101183.72;;;14.17;61.68
56042;BME280;48756;41.374;2.066;2023-04-07T07:48:16;101179.69;;;14.50;61.32
56042;BME280;48756;41.374;2.066;2023-04-07T07:50:42;101181.88;;;14.73;60.94
56042;BME280;48756;41.374;2.066;2023-04-07T07:53:08;101180.94;;;14.77;59.84
56042;BME280;48756;41.374;2.066;2023-04-07T07:55:34;101177.03;;;14.53;62.19
56042;BME280;48756;41.374;2.066;2023-04-07T07:57:59;101185.00;;;14.92;61.48
56042;BME280;48756;41.374;2.066;2023-04-07T08:00:24;101178.56;;;15.07;60.69
56042;BME280;48756;41.374;2.066;2023-04-07T08:02:50;101175.66;;;14.79;61.18
56042;BME280;48756;41.374;2.066;2023-04-07T08:05:15;101181.88;;;14.73;61.63
56042;BME280;48756;41.374;2.066;2023-04-07T08:07:41;101183.94;;;15.02;61.23
56042;BME280;48756;41.374;2.066;2023-04-07T08:10:07;101181.09;;;14.68;62.88
56042;BME280;48756;41.374;2.066;2023-04-07T08:12:33;101185.19;;;15.24;61.42
56042;BME280;48756;41.374;2.066;2023-04-07T08:14:58;101190.31;;;15.30;61.18
56042;BME280;48756;41.374;2.066;2023-04-07T08:17:24;101183.50;;;15.64;60.25
56042;BME280;48756;41.374;2.066;2023-04-07T08:19:49;101188.88;;;15.95;58.31
56042;BME280;48756;41.374;2.066;2023-04-07T08:22:15;101186.75;;;15.33;60.22
56042;BME280;48756;41.374;2.066;2023-04-07T08:24:40;101187.00;;;15.22;62.20
56042;BME280;48756;41.374;2.066;2023-04-07T08:27:05;101182.72;;;15.18;61.70
56042;BME280;48756;41.374;2.066;2023-04-07T08:29:31;101183.88;;;15.45;60.99
56042;BME280;48756;41.374;2.066;2023-04-07T08:31:56;101183.19;;;15.76;60.51
56042;BME280;48756;41.374;2.066;2023-04-07T08:34:21;101176.09;;;16.15;58.28
56042;BME280;48756;41.374;2.066;2023-04-07T08:36:47;101176.16;;;16.46;57.66
56042;BME280;48756;41.374;2.066;2023-04-07T08:39:12;101175.41;;;16.08;58.10
56042;BME280;48756;41.374;2.066;2023-04-07T08:41:38;101181.22;;;15.84;59.85
56042;BME280;48756;41.374;2.066;2023-04-07T08:44:04;101178.19;;;16.36;58.49
56042;BME280;48756;41.374;2.066;2023-04-07T08:46:30;101175.19;;;16.82;56.84
56042;BME280;48756;41.374;2.066;2023-04-07T08:48:57;101179.94;;;16.70;56.63
56042;BME280;48756;41.374;2.066;2023-04-07T08:51:27;101178.59;;;16.53;59.65
56042;BME280;48756;41.374;2.066;2023-04-07T08:53:53;101178.09;;;16.72;58.90
56042;BME280;48756;41.374;2.066;2023-04-07T08:56:19;101174.25;;;17.14;57.87
56042;BME280;48756;41.374;2.066;2023-04-07T08:58:46;101175.63;;;17.28;56.99
56042;BME280;48756;41.374;2.066;2023-04-07T09:01:12;101174.81;;;17.26;58.11
56042;BME280;48756;41.374;2.066;2023-04-07T09:03:38;101174.94;;;17.51;57.58
56042;BME280;48756;41.374;2.066;2023-04-07T09:06:04;101166.19;;;18.29;55.43
56042;BME280;48756;41.374;2.066;2023-04-07T09:08:29;101168.91;;;18.53;55.40
56042;BME280;48756;41.374;2.066;2023-04-07T09:10:57;101165.00;;;18.40;55.80
56042;BME280;48756;41.374;2.066;2023-04-07T09:13:23;101161.38;;;17.91;55.92
56042;BME280;48756;41.374;2.066;2023-04-07T09:15:51;101163.09;;;18.43;55.48
56042;BME280;48756;41.374;2.066;2023-04-07T09:18:17;101161.78;;;19.05;52.67
56042;BME280;48756;41.374;2.066;2023-04-07T09:23:28;101165.88;;;18.65;53.58
56042;BME280;48756;41.374;2.066;2023-04-07T09:25:55;101160.66;;;18.87;53.54
56042;BME280;48756;41.374;2.066;2023-04-07T09:28:23;101157.72;;;19.18;52.82
56042;BME280;48756;41.374;2.066;2023-04-07T09:30:52;101157.16;;;19.10;54.79
56042;BME280;48756;41.374;2.066;2023-04-07T09:33:25;101152.34;;;19.43;52.31
56042;BME280;48756;41.374;2.066;2023-04-07T09:35:51;101152.50;;;19.83;52.18
56042;BME280;48756;41.374;2.066;2023-04-07T09:38:20;101147.81;;;19.90;52.21
56042;BME280;48756;41.374;2.066;2023-04-07T09:40:45;101141.00;;;19.84;51.30
56042;BME280;48756;41.374;2.066;2023-04-07T09:43:16;101135.50;;;19.89;52.59
56042;BME280;48756;41.374;2.066;2023-04-07T09:45:41;101137.38;;;19.87;53.68
56042;BME280;48756;41.374;2.066;2023-04-07T09:48:07;101144.03;;;19.75;54.74
56042;BME280;48756;41.374;2.066;2023-04-07T09:50:41;101133.75;;;20.30;53.15
56042;BME280;48756;41.374;2.066;2023-04-07T09:53:10;101135.03;;;20.62;51.70
56042;BME280;48756;41.374;2.066;2023-04-07T09:55:35;101130.13;;;19.48;53.75
56042;BME280;48756;41.374;2.066;2023-04-07T09:58:01;101131.19;;;19.21;55.28
56042;BME280;48756;41.374;2.066;2023-04-07T10:00:27;101126.50;;;19.51;53.96
56042;BME280;48756;41.374;2.066;2023-04-07T10:02:53;101120.72;;;19.63;53.16
56042;BME280;48756;41.374;2.066;2023-04-07T10:05:19;101114.34;;;19.89;52.19
56042;BME280;48756;41.374;2.066;2023-04-07T10:07:45;101120.84;;;19.82;54.82
56042;BME280;48756;41.374;2.066;2023-04-07T10:10:11;101111.13;;;20.64;53.35
56042;BME280;48756;41.374;2.066;2023-04-07T10:12:37;101111.53;;;21.13;50.93
56042;BME280;48756;41.374;2.066;2023-04-07T10:15:03;101120.09;;;20.61;52.26
56042;BME280;48756;41.374;2.066;2023-04-07T10:17:29;101116.31;;;20.26;54.34
56042;BME280;48756;41.374;2.066;2023-04-07T10:19:56;101109.78;;;20.14;54.24
56042;BME280;48756;41.374;2.066;2023-04-07T10:22:22;101111.78;;;20.08;54.76
56042;BME280;48756;41.374;2.066;2023-04-07T10:27:15;101108.75;;;19.97;53.88
56042;BME280;48756;41.374;2.066;2023-04-07T10:29:42;101101.34;;;20.05;54.10
56042;BME280;48756;41.374;2.066;2023-04-07T10:32:08;101089.88;;;20.65;52.29
56042;BME280;48756;41.374;2.066;2023-04-07T10:37:13;101092.59;;;20.64;52.93
56042;BME280;48756;41.374;2.066;2023-04-07T10:39:38;101085.50;;;20.45;52.21
56042;BME280;48756;41.374;2.066;2023-04-07T10:42:05;101081.84;;;20.48;53.32
56042;BME280;48756;41.374;2.066;2023-04-07T10:44:43;101082.16;;;20.61;51.94
56042;BME280;48756;41.374;2.066;2023-04-07T10:47:09;101073.41;;;20.59;51.58
56042;BME280;48756;41.374;2.066;2023-04-07T10:49:34;101072.81;;;20.32;53.37
56042;BME280;48756;41.374;2.066;2023-04-07T10:54:37;101048.00;;;20.92;52.08
56042;BME280;48756;41.374;2.066;2023-04-07T10:57:04;101055.00;;;21.12;51.77
56042;BME280;48756;41.374;2.066;2023-04-07T10:59:32;101052.69;;;20.87;52.28
56042;BME280;48756;41.374;2.066;2023-04-07T11:02:28;101049.63;;;20.57;53.29
56042;BME280;48756;41.374;2.066;2023-04-07T11:04:46;101050.34;;;21.17;51.42
56042;BME280;48756;41.374;2.066;2023-04-07T11:07:12;101043.34;;;20.78;52.01
56042;BME280;48756;41.374;2.066;2023-04-07T11:09:38;101040.44;;;20.85;52.93
56042;BME280;48756;41.374;2.066;2023-04-07T11:12:04;101044.72;;;20.87;52.80
56042;BME280;48756;41.374;2.066;2023-04-07T11:14:30;101037.25;;;20.95;51.82
56042;BME280;48756;41.374;2.066;2023-04-07T11:16:57;101033.44;;;21.20;51.00
56042;BME280;48756;41.374;2.066;2023-04-07T11:19:22;101023.91;;;21.34;49.77
56042;BME280;48756;41.374;2.066;2023-04-07T11:21:48;101026.56;;;21.34;49.78
56042;BME280;48756;41.374;2.066;2023-04-07T11:26:57;101022.81;;;20.46;53.10
56042;BME280;48756;41.374;2.066;2023-04-07T11:29:28;101022.19;;;21.33;49.63
56042;BME280;48756;41.374;2.066;2023-04-07T11:31:55;101023.31;;;21.81;49.04
56042;BME280;48756;41.374;2.066;2023-04-07T11:34:27;101016.13;;;21.66;48.68
56042;BME280;48756;41.374;2.066;2023-04-07T11:36:53;101013.56;;;21.11;49.47
56042;BME280;48756;41.374;2.066;2023-04-07T11:39:23;101004.72;;;20.74;50.27
56042;BME280;48756;41.374;2.066;2023-04-07T11:41:52;101001.28;;;21.27;49.76
56042;BME280;48756;41.374;2.066;2023-04-07T11:44:17;101006.53;;;21.98;47.85
56042;BME280;48756;41.374;2.066;2023-04-07T11:49:18;100997.63;;;21.82;48.32
56042;BME280;48756;41.374;2.066;2023-04-07T11:51:44;100999.53;;;22.30;45.94
56042;BME280;48756;41.374;2.066;2023-04-07T11:54:11;100988.34;;;21.38;47.93
56042;BME280;48756;41.374;2.066;2023-04-07T11:56:46;100985.56;;;21.76;46.16
56042;BME280;48756;41.374;2.066;2023-04-07T11:59:20;100982.59;;;21.30;47.56
56042;BME280;48756;41.374;2.066;2023-04-07T12:01:47;100976.88;;;21.02;48.40
56042;BME280;48756;41.374;2.066;2023-04-07T12:04:13;100965.97;;;21.27;46.97
56042;BME280;48756;41.374;2.066;2023-04-07T12:06:39;100968.09;;;21.37;47.38
56042;BME280;48756;41.374;2.066;2023-04-07T12:09:07;100976.75;;;21.58;45.70
56042;BME280;48756;41.374;2.066;2023-04-07T12:11:33;100970.16;;;21.83;44.95
56042;BME280;48756;41.374;2.066;2023-04-07T12:13:59;100968.53;;;21.80;43.79
56042;BME280;48756;41.374;2.066;2023-04-07T12:16:25;100970.41;;;22.28;43.71
56042;BME280;48756;41.374;2.066;2023-04-07T12:18:51;100963.22;;;22.30;42.90
56042;BME280;48756;41.374;2.066;2023-04-07T12:21:17;100969.63;;;22.26;43.54
56042;BME280;48756;41.374;2.066;2023-04-07T12:23:43;100963.13;;;21.99;43.20
56042;BME280;48756;41.374;2.066;2023-04-07T12:26:08;100961.94;;;22.38;42.57
56042;BME280;48756;41.374;2.066;2023-04-07T12:28:35;100972.44;;;21.38;45.70
56042;BME280;48756;41.374;2.066;2023-04-07T12:31:01;100966.56;;;21.84;44.90
56042;BME280;48756;41.374;2.066;2023-04-07T12:33:27;100958.47;;;22.04;45.04
56042;BME280;48756;41.374;2.066;2023-04-07T12:35:52;100945.75;;;22.74;43.97
56042;BME280;48756;41.374;2.066;2023-04-07T12:38:18;100942.25;;;22.89;43.36
56042;BME280;48756;41.374;2.066;2023-04-07T12:40:43;100941.56;;;23.31;42.54
56042;BME280;48756;41.374;2.066;2023-04-07T12:43:08;100932.66;;;22.71;43.21
56042;BME280;48756;41.374;2.066;2023-04-07T12:45:34;100947.94;;;21.16;46.17
56042;BME280;48756;41.374;2.066;2023-04-07T12:47:59;100938.72;;;22.25;45.13
56042;BME280;48756;41.374;2.066;2023-04-07T12:50:25;100933.22;;;22.13;43.91
56042;BME280;48756;41.374;2.066;2023-04-07T12:52:50;100929.88;;;21.59;44.81
56042;BME280;48756;41.374;2.066;2023-04-07T12:55:17;100925.31;;;21.78;44.32
56042;BME280;48756;41.374;2.066;2023-04-07T12:57:42;100923.72;;;21.41;45.16
56042;BME280;48756;41.374;2.066;2023-04-07T13:00:08;100919.19;;;21.43;44.64
56042;BME280;48756;41.374;2.066;2023-04-07T13:02:34;100913.88;;;22.26;43.33
56042;BME280;48756;41.374;2.066;2023-04-07T13:05:00;100921.44;;;22.01;44.74